Time;durP1;ratioP1;P1;durP2;ratioP2;P2;SDS_P1;SDS_P2;PMS_P1;PMS_P2;Temp;Humidity;BMP_temperature;BMP_pressure;BME280_temperature;BME280_humidity;BME280_pressure;Samples;Min_cycle;Max_cycle;Signal;HPM_P1;HPM_P2
2021/10/26 00:02:27;;;;;;;240.03;62.15;;;;;;;-0.88;71.36;100872.02;1677599;85;20962;-68
2021/10/26 00:04:58;;;;;;;258.87;67.95;;;;;;;-0.82;71.19;100864.44;1668995;84;21309;-67
2021/10/26 00:07:30;;;;;;;277.35;77.50;;;;;;;-0.77;71.06;100868.69;1674181;85;20949;-67
2021/10/26 00:10:06;;;;;;;246.05;69.87;;;;;;;-0.73;70.93;100859.14;1673188;85;21037;-67
2021/10/26 00:12:36;;;;;;;219.80;62.73;;;;;;;-0.67;70.74;100855.09;1659575;85;20962;-67
2021/10/26 00:15:05;;;;;;;233.28;65.12;;;;;;;-0.65;70.61;100845.44;1679135;85;21044;-67
2021/10/26 00:17:35;;;;;;;226.65;60.80;;;;;;;-0.63;70.50;100846.58;1661619;85;21113;-67
2021/10/26 00:20:03;;;;;;;251.12;61.40;;;;;;;-0.60;70.42;100840.24;1666992;85;20954;-68
2021/10/26 00:22:35;;;;;;;162.65;41.80;;;;;;;-0.57;70.33;100843.83;1667347;85;20993;-68
2021/10/26 00:25:06;;;;;;;162.10;39.80;;;;;;;-0.55;70.20;100839.05;1678660;85;20961;-68
2021/10/26 00:27:40;;;;;;;110.65;30.65;;;;;;;-0.55;70.10;100838.23;1667348;85;20941;-68
2021/10/26 00:30:10;;;;;;;102.65;30.23;;;;;;;-0.56;70.17;100836.05;1659711;85;21434;-68
2021/10/26 00:32:41;;;;;;;123.42;31.00;;;;;;;-0.55;70.20;100832.83;1666635;85;21028;-69
2021/10/26 00:35:08;;;;;;;121.13;30.60;;;;;;;-0.52;70.15;100828.36;1665527;85;20911;-68
2021/10/26 00:37:48;;;;;;;97.15;26.17;;;;;;;-0.50;70.03;100832.51;1678738;85;20971;-68
2021/10/26 00:40:20;;;;;;;94.15;26.00;;;;;;;-0.50;69.88;100828.98;1659476;85;20878;-69
2021/10/26 00:42:54;;;;;;;90.20;23.70;;;;;;;-0.50;69.85;100827.63;1653810;85;20945;-69
2021/10/26 00:45:22;;;;;;;66.17;20.05;;;;;;;-0.57;69.76;100822.25;1667111;85;20954;-68
2021/10/26 00:47:54;;;;;;;78.52;21.55;;;;;;;-0.62;69.82;100819.39;1679076;85;20953;-69
2021/10/26 00:50:28;;;;;;;61.00;17.87;;;;;;;-0.64;70.08;100815.25;1659043;85;21004;-68
2021/10/26 00:52:56;;;;;;;60.28;18.30;;;;;;;-0.68;70.06;100818.89;1662117;85;20910;-68
2021/10/26 00:55:22;;;;;;;54.75;19.62;;;;;;;-0.74;70.12;100817.86;1662952;85;21145;-68
2021/10/26 00:57:57;;;;;;;57.88;17.10;;;;;;;-0.80;70.22;100820.57;1679609;85;20965;-68
2021/10/26 01:00:29;;;;;;;60.67;19.57;;;;;;;-0.85;70.39;100814.46;1667383;85;20946;-68
2021/10/26 01:02:58;;;;;;;46.70;17.20;;;;;;;-0.88;70.39;100820.80;1655831;85;20957;-68
2021/10/26 01:05:32;;;;;;;73.10;17.62;;;;;;;-0.94;70.67;100819.77;1667245;85;20938;-68
2021/10/26 01:07:58;;;;;;;69.60;21.82;;;;;;;-0.98;70.81;100821.73;1660289;85;21143;-68
2021/10/26 01:10:34;;;;;;;96.85;23.07;;;;;;;-1.06;70.77;100818.73;1667287;85;21025;-68
2021/10/26 01:13:09;;;;;;;80.05;21.50;;;;;;;-1.14;71.08;100822.47;1678804;85;21072;-68
2021/10/26 01:15:41;;;;;;;67.85;19.48;;;;;;;-1.19;71.25;100818.25;1657243;85;21097;-68
2021/10/26 01:18:18;;;;;;;76.30;20.52;;;;;;;-1.23;71.47;100818.88;1655406;85;21013;-68
2021/10/26 01:20:48;;;;;;;76.80;18.73;;;;;;;-1.25;71.72;100816.91;1667072;85;21158;-69
2021/10/26 01:23:21;;;;;;;60.15;20.25;;;;;;;-1.29;71.83;100822.40;1659516;85;21025;-69
2021/10/26 01:25:52;;;;;;;71.55;21.70;;;;;;;-1.31;72.07;100811.83;1679302;85;21029;-69
2021/10/26 01:28:25;;;;;;;102.32;24.40;;;;;;;-1.33;71.97;100817.94;1659799;85;21000;-69
2021/10/26 01:31:02;;;;;;;61.20;18.60;;;;;;;-1.40;72.15;100811.20;1659582;85;20989;-69
2021/10/26 01:33:47;;;;;;;57.33;18.45;;;;;;;-1.43;72.26;100813.48;1679314;85;21179;-68
2021/10/26 01:36:39;;;;;;;114.25;29.15;;;;;;;-1.48;72.52;100815.45;1656771;86;20906;-69
2021/10/26 01:39:09;;;;;;;102.30;23.30;;;;;;;-1.49;72.81;100809.75;1650977;86;21016;-68
2021/10/26 01:41:46;;;;;;;104.95;27.73;;;;;;;-1.47;73.15;100800.11;1670170;85;20921;-68
2021/10/26 01:44:27;;;;;;;99.72;25.95;;;;;;;-1.43;73.18;100793.28;1659875;85;21048;-69
2021/10/26 01:46:59;;;;;;;89.22;25.23;;;;;;;-1.39;73.12;100788.62;1672229;85;21150;-69
2021/10/26 01:49:26;;;;;;;98.42;26.35;;;;;;;-1.38;73.03;100791.62;1678843;85;20942;-67
2021/10/26 01:51:59;;;;;;;92.25;24.40;;;;;;;-1.38;72.90;100794.83;1677069;85;21455;-68
2021/10/26 01:54:39;;;;;;;110.25;27.65;;;;;;;-1.42;72.95;100794.94;1668417;85;21493;-67
2021/10/26 01:57:11;;;;;;;203.47;44.27;;;;;;;-1.47;73.07;100790.17;1676042;85;20942;-67
2021/10/26 01:59:49;;;;;;;151.15;34.35;;;;;;;-1.45;73.38;100788.62;1669403;85;22248;-68
2021/10/26 02:02:18;;;;;;;176.97;39.25;;;;;;;-1.42;73.39;100795.77;1659302;85;20914;-67
2021/10/26 02:04:45;;;;;;;143.05;34.50;;;;;;;-1.39;73.37;100794.01;1679258;85;20898;-67
2021/10/26 02:07:15;;;;;;;152.72;33.85;;;;;;;-1.39;73.24;100792.66;1668184;85;21001;-68
2021/10/26 02:09:46;;;;;;;113.57;31.30;;;;;;;-1.42;73.03;100797.11;1660371;85;21047;-68
2021/10/26 02:12:16;;;;;;;110.68;27.82;;;;;;;-1.50;72.99;100794.62;1648375;85;21013;-68
2021/10/26 02:14:44;;;;;;;102.80;26.20;;;;;;;-1.55;73.38;100791.72;1679347;85;20930;-68
2021/10/26 02:17:12;;;;;;;89.87;24.55;;;;;;;-1.56;73.63;100789.23;1669941;85;20954;-68
2021/10/26 02:19:39;;;;;;;80.60;22.35;;;;;;;-1.60;73.46;100787.47;1672996;85;21005;-68
2021/10/26 02:22:12;;;;;;;85.55;23.42;;;;;;;-1.64;73.79;100790.77;1673542;85;20878;-67
2021/10/26 02:24:41;;;;;;;74.30;20.20;;;;;;;-1.66;73.88;100787.77;1666091;85;21140;-67
2021/10/26 02:27:15;;;;;;;66.37;19.95;;;;;;;-1.69;73.88;100788.70;1670585;85;20985;-68
2021/10/26 02:29:46;;;;;;;71.42;20.30;;;;;;;-1.73;74.16;100781.55;1673042;85;21492;-67
2021/10/26 02:32:14;;;;;;;126.02;28.50;;;;;;;-1.74;74.30;100779.09;1669370;85;21436;-67
2021/10/26 02:34:42;;;;;;;135.22;29.52;;;;;;;-1.73;74.56;100781.55;1675131;85;20946;-67
2021/10/26 02:37:17;;;;;;;112.72;25.65;;;;;;;-1.68;74.60;100783.11;1659960;85;21005;-67
2021/10/26 02:39:49;;;;;;;75.50;21.10;;;;;;;-1.65;74.60;100779.17;1665577;85;20982;-67
2021/10/26 02:42:24;;;;;;;94.72;25.50;;;;;;;-1.61;74.69;100775.04;1672859;85;21001;-68
2021/10/26 02:44:54;;;;;;;120.62;28.87;;;;;;;-1.60;74.39;100781.25;1665371;85;20922;-67
2021/10/26 02:47:22;;;;;;;123.07;28.00;;;;;;;-1.63;74.40;100777.62;1669772;85;20977;-67
2021/10/26 02:49:53;;;;;;;107.65;25.85;;;;;;;-1.64;74.52;100775.45;1675482;84;21055;-68
2021/10/26 02:52:25;;;;;;;74.58;20.68;;;;;;;-1.65;74.43;100772.45;1659864;85;20950;-69
2021/10/26 02:54:56;;;;;;;54.33;18.07;;;;;;;-1.68;74.46;100775.03;1672511;85;20950;-68
2021/10/26 02:57:22;;;;;;;62.33;18.27;;;;;;;-1.72;74.38;100772.95;1668606;84;22217;-67
2021/10/26 02:59:56;;;;;;;50.87;15.90;;;;;;;-1.79;74.47;100769.45;1660079;85;21010;-67
2021/10/26 03:02:26;;;;;;;35.05;14.35;;;;;;;-1.83;74.78;100774.42;1679044;85;21489;-68
2021/10/26 03:05:00;;;;;;;42.03;16.27;;;;;;;-1.85;74.87;100764.38;1659215;85;20985;-68
2021/10/26 03:07:41;;;;;;;44.35;17.42;;;;;;;-1.86;74.91;100763.23;1672064;85;20914;-68
2021/10/26 03:10:17;;;;;;;47.17;15.43;;;;;;;-1.86;75.12;100762.72;1679217;85;21551;-68
2021/10/26 03:12:48;;;;;;;51.98;16.50;;;;;;;-1.85;75.18;100762.20;1674330;85;20957;-68
2021/10/26 03:15:18;;;;;;;39.98;15.60;;;;;;;-1.85;75.27;100764.89;1671237;85;21161;-68
2021/10/26 03:17:52;;;;;;;35.98;15.32;;;;;;;-1.87;75.09;100754.84;1676107;85;21468;-69
2021/10/26 03:20:22;;;;;;;31.97;15.00;;;;;;;-1.90;75.08;100755.26;1662860;85;21508;-69
2021/10/26 03:22:53;;;;;;;35.78;14.60;;;;;;;-1.94;75.38;100752.66;1674264;85;20950;-69
2021/10/26 03:25:22;;;;;;;44.20;16.35;;;;;;;-1.96;75.54;100754.21;1679290;85;20930;-69
2021/10/26 03:27:59;;;;;;;37.80;15.53;;;;;;;-1.96;75.55;100748.83;1679051;85;21834;-69
2021/10/26 03:30:32;;;;;;;40.45;14.98;;;;;;;-2.01;75.51;100741.88;1657001;85;21464;-69
2021/10/26 03:33:04;;;;;;;32.95;15.05;;;;;;;-2.03;75.54;100741.26;1661251;85;21021;-69
2021/10/26 03:35:35;;;;;;;48.05;17.30;;;;;;;-2.04;75.71;100740.43;1668446;85;20910;-70
2021/10/26 03:38:14;;;;;;;49.55;16.60;;;;;;;-2.06;75.68;100741.15;1673092;85;20922;-71
2021/10/26 03:40:41;;;;;;;72.05;21.40;;;;;;;-2.08;75.59;100745.91;1679396;85;21738;-70
2021/10/26 03:43:12;;;;;;;147.43;31.20;;;;;;;-2.14;75.58;100740.51;1679214;85;20981;-70
2021/10/26 03:45:42;;;;;;;180.12;36.55;;;;;;;-2.21;75.91;100745.87;1679267;85;21480;-70
2021/10/26 03:48:16;;;;;;;146.18;31.48;;;;;;;-2.20;76.37;100742.15;1678991;85;20985;-70
2021/10/26 03:50:49;;;;;;;123.70;30.15;;;;;;;-2.16;76.47;100742.06;1630229;86;20914;-70
2021/10/26 03:53:19;;;;;;;129.30;29.72;;;;;;;-2.11;76.59;100736.89;1679126;84;21082;-70
2021/10/26 03:55:51;;;;;;;140.28;31.85;;;;;;;-2.06;76.47;100734.42;1679479;85;20934;-70
2021/10/26 03:58:22;;;;;;;121.65;29.87;;;;;;;-2.01;76.50;100740.02;1679244;85;20950;-73
2021/10/26 04:00:51;;;;;;;177.68;37.45;;;;;;;-1.96;76.51;100739.92;1679531;85;20965;-70
2021/10/26 04:03:27;;;;;;;181.67;36.60;;;;;;;-1.94;76.37;100739.20;1659277;85;20993;-71
2021/10/26 04:06:03;;;;;;;166.60;35.92;;;;;;;-1.94;76.35;100737.86;1679587;85;20930;-69
2021/10/26 04:08:48;;;;;;;182.57;36.40;;;;;;;-1.97;76.34;100735.06;1678992;85;21476;-70
2021/10/26 04:11:13;;;;;;;250.80;46.63;;;;;;;-1.97;76.37;100736.41;1677909;85;20994;-71
2021/10/26 04:13:44;;;;;;;192.22;37.55;;;;;;;-1.97;76.63;100737.75;1678998;85;20969;-68
2021/10/26 04:16:17;;;;;;;222.33;41.05;;;;;;;-1.96;77.39;100738.58;1678913;85;20921;-69
2021/10/26 04:18:48;;;;;;;209.22;39.98;;;;;;;-1.92;77.11;100733.09;1679368;85;21166;-69
2021/10/26 04:21:23;;;;;;;165.90;34.48;;;;;;;-1.92;76.88;100734.45;1659762;85;20862;-69
2021/10/26 04:23:54;;;;;;;181.95;35.85;;;;;;;-1.93;76.79;100739.00;1679424;84;20914;-68
2021/10/26 04:26:25;;;;;;;176.85;35.75;;;;;;;-1.95;76.75;100732.99;1679132;85;20941;-68
2021/10/26 04:28:57;;;;;;;132.95;30.62;;;;;;;-1.96;76.72;100734.55;1679528;85;20858;-68
2021/10/26 04:31:26;;;;;;;114.15;28.90;;;;;;;-2.01;77.06;100727.91;1679237;85;21080;-69
2021/10/26 04:33:56;;;;;;;124.38;28.55;;;;;;;-1.99;77.18;100737.12;1679154;85;21417;-67
2021/10/26 04:36:26;;;;;;;74.75;21.07;;;;;;;-2.01;77.11;100733.81;1677658;85;20897;-68
2021/10/26 04:39:02;;;;;;;157.32;32.75;;;;;;;-2.04;77.04;100733.70;1669602;85;21509;-70
2021/10/26 04:41:38;;;;;;;130.82;28.47;;;;;;;-2.07;77.22;100734.11;1676471;85;21595;-68
2021/10/26 04:44:07;;;;;;;121.37;28.27;;;;;;;-2.06;77.40;100731.73;1673326;85;21083;-69
2021/10/26 04:46:38;;;;;;;88.45;24.20;;;;;;;-2.01;78.11;100732.47;1651869;86;20953;-67
2021/10/26 04:49:09;;;;;;;90.17;25.88;;;;;;;-1.98;77.78;100736.61;1672974;85;20917;-69
2021/10/26 04:51:41;;;;;;;87.62;22.27;;;;;;;-1.96;77.61;100741.27;1679066;85;20961;-71
2021/10/26 04:54:11;;;;;;;64.70;20.32;;;;;;;-1.97;77.54;100739.09;1679432;85;20949;-74
2021/10/26 04:56:40;;;;;;;47.93;16.82;;;;;;;-1.98;77.52;100741.48;1653910;85;21022;-69
2021/10/26 04:59:23;;;;;;;45.78;16.57;;;;;;;-1.96;77.66;100739.92;1647501;87;20945;-69
2021/10/26 05:01:52;;;;;;;39.45;15.30;;;;;;;-1.98;77.39;100741.48;1644856;87;21040;-69
2021/10/26 05:04:24;;;;;;;41.77;16.23;;;;;;;-2.01;77.28;100745.92;1627775;87;21013;-69
2021/10/26 05:06:55;;;;;;;40.98;15.50;;;;;;;-2.05;77.34;100744.67;1651268;86;21004;-68
2021/10/26 05:09:27;;;;;;;41.73;15.58;;;;;;;-2.03;77.59;100746.13;1644648;85;21178;-68
2021/10/26 05:11:54;;;;;;;28.65;13.00;;;;;;;-2.03;77.51;100747.47;1643577;87;20970;-74
2021/10/26 05:14:28;;;;;;;32.28;12.95;;;;;;;-2.04;77.69;100742.29;1646648;87;20966;-74
2021/10/26 05:17:20;;;;;;;34.98;13.93;;;;;;;-2.03;77.56;100747.47;1651928;86;20878;-78
2021/10/26 05:20:07;;;;;;;39.25;15.40;;;;;;;-2.02;77.95;100749.13;1651985;85;20957;-76
2021/10/26 05:22:49;;;;;;;31.87;14.75;;;;;;;-1.95;77.98;100751.83;1630362;87;21537;-74
2021/10/26 05:25:36;;;;;;;49.35;25.17;;;;;;;-1.92;77.93;100754.63;1634238;87;20996;-73
2021/10/26 05:28:09;;;;;;;50.48;26.97;;;;;;;-1.86;78.45;100756.50;1665824;85;20906;-71
2021/10/26 05:30:40;;;;;;;49.90;23.22;;;;;;;-1.76;79.21;100758.28;1658386;85;21004;-71
2021/10/26 05:33:14;;;;;;;43.35;20.05;;;;;;;-1.63;78.67;100754.22;1676805;85;21032;-71
2021/10/26 05:35:44;;;;;;;45.78;21.20;;;;;;;-1.51;79.29;100753.08;1675425;85;21832;-71
2021/10/26 05:38:15;;;;;;;57.45;24.57;;;;;;;-1.39;78.26;100758.98;1672423;85;21536;-76
2021/10/26 05:40:43;;;;;;;61.23;23.00;;;;;;;-1.30;78.10;100752.88;1678739;85;21022;-72
2021/10/26 05:43:12;;;;;;;50.70;21.80;;;;;;;-1.25;77.61;100750.38;1648007;85;20985;-75
2021/10/26 05:45:45;;;;;;;43.85;18.48;;;;;;;-1.18;77.96;100755.23;1658122;86;20965;-70
2021/10/26 05:48:18;;;;;;;66.47;27.25;;;;;;;-1.10;77.26;100761.73;1647355;85;20969;-73
2021/10/26 05:50:50;;;;;;;64.15;28.73;;;;;;;-1.03;76.86;100763.06;1662243;85;21358;-70
2021/10/26 05:53:22;;;;;;;72.55;34.15;;;;;;;-0.96;76.65;100753.09;1656821;85;21596;-69
2021/10/26 05:55:52;;;;;;;61.70;31.15;;;;;;;-0.90;76.49;100760.86;1658488;85;21437;-69
2021/10/26 05:58:25;;;;;;;58.13;29.63;;;;;;;-0.82;76.39;100761.98;1671261;85;21072;-69
2021/10/26 06:00:56;;;;;;;106.72;55.03;;;;;;;-0.74;76.33;100769.33;1655290;86;20998;-69
2021/10/26 06:03:23;;;;;;;92.05;47.30;;;;;;;-0.62;75.96;100771.37;1664869;85;20922;-71
2021/10/26 06:05:51;;;;;;;85.70;44.03;;;;;;;-0.49;76.21;100770.77;1679241;85;21035;-68
2021/10/26 06:08:23;;;;;;;66.10;31.82;;;;;;;-0.38;75.80;100767.92;1660156;85;21005;-68
2021/10/26 06:11:01;;;;;;;38.28;19.10;;;;;;;-0.24;75.83;100764.12;1674708;85;20962;-68
2021/10/26 06:13:28;;;;;;;;;;;;;;;-0.10;75.40;100764.36;1634574;87;21021;-68
2021/10/26 06:15:54;;;;;;;42.55;17.30;;;;;;;0.06;75.22;100761.64;1644259;87;20090;-68
2021/10/26 06:18:25;;;;;;;32.93;15.40;;;;;;;0.18;75.24;100761.26;1644829;87;21105;-68
2021/10/26 06:20:54;;;;;;;34.20;13.70;;;;;;;0.38;75.03;100758.95;1641606;86;20929;-68
2021/10/26 06:23:24;;;;;;;33.03;12.23;;;;;;;0.79;74.80;100754.31;1651528;87;21014;-67
2021/10/26 06:25:59;;;;;;;21.77;11.25;;;;;;;1.44;73.51;100754.64;1644885;86;21223;-67
2021/10/26 06:28:33;;;;;;;;;;;;;;;1.84;71.40;100757.12;1651655;85;21044;-69
2021/10/26 06:30:58;;;;;;;24.10;12.15;;;;;;;2.01;70.33;100758.67;1651976;86;20136;-69
2021/10/26 06:33:29;;;;;;;31.57;12.98;;;;;;;2.30;69.83;100762.41;1673198;85;20929;-70
2021/10/26 06:35:57;;;;;;;31.12;13.45;;;;;;;2.84;68.66;100758.59;1669116;85;20906;-70
2021/10/26 06:38:24;;;;;;;26.37;13.62;;;;;;;3.50;66.91;100755.11;1677606;85;21449;-70
2021/10/26 06:40:56;;;;;;;27.45;14.00;;;;;;;4.09;63.32;100757.06;1675032;85;20953;-70
2021/10/26 06:43:37;;;;;;;25.02;13.93;;;;;;;4.52;61.82;100755.12;1631791;86;20934;-69
2021/10/26 06:46:22;;;;;;;25.45;12.15;;;;;;;4.84;61.24;100755.34;1574398;87;21028;-68
2021/10/26 06:49:01;;;;;;;40.55;14.40;;;;;;;5.59;58.42;100746.57;1600356;87;21473;-69
2021/10/26 06:51:50;;;;;;;24.98;12.88;;;;;;;5.59;58.42;100746.57;1662425;85;21173;-68
2021/10/26 06:54:40;;;;;;;29.23;12.68;;;;;;;5.91;56.17;100745.32;1676495;85;21013;-68
2021/10/26 06:57:30;;;;;;;25.50;12.40;;;;;;;5.88;55.98;100737.08;1679374;85;20953;-68
2021/10/26 07:00:19;;;;;;;38.45;14.65;;;;;;;6.04;56.07;100739.47;1679439;85;20914;-68
2021/10/26 07:03:07;;;;;;;35.08;13.03;;;;;;;6.38;54.53;100740.05;1679419;85;20984;-68
2021/10/26 07:05:40;;;;;;;31.50;13.35;;;;;;;6.64;54.38;100738.37;1649905;85;21528;-68
2021/10/26 07:08:27;;;;;;;29.85;12.50;;;;;;;6.82;52.94;100731.14;1678708;85;21057;-67
2021/10/26 07:11:02;;;;;;;27.98;12.98;;;;;;;6.90;53.12;100733.39;1677501;85;21863;-68
2021/10/26 07:13:35;;;;;;;25.50;11.70;;;;;;;6.90;52.53;100729.29;1655141;85;21017;-75
2021/10/26 07:16:05;;;;;;;22.90;10.65;;;;;;;6.95;52.08;100727.11;1653022;86;21131;-72
2021/10/26 07:18:38;;;;;;;23.87;11.43;;;;;;;6.86;51.38;100724.62;1668966;86;21164;-71
2021/10/26 07:21:12;;;;;;;21.07;9.75;;;;;;;6.72;52.35;100731.61;1668084;86;20954;-70
2021/10/26 07:24:04;;;;;;;32.28;10.90;;;;;;;6.81;52.19;100730.04;1668925;86;21457;-70
2021/10/26 07:26:40;;;;;;;30.27;10.50;;;;;;;6.96;52.29;100726.84;1668536;86;20938;-71
2021/10/26 07:29:08;;;;;;;29.55;11.97;;;;;;;7.29;51.95;100718.84;1668942;86;21489;-70
2021/10/26 07:31:39;;;;;;;28.60;11.30;;;;;;;7.69;50.93;100722.00;1668995;85;21521;-72
2021/10/26 07:34:13;;;;;;;59.90;12.40;;;;;;;7.87;50.36;100715.50;1669314;86;20962;-73
2021/10/26 07:36:45;;;;;;;24.98;11.33;;;;;;;8.05;49.36;100706.52;1667179;86;21533;-80
2021/10/26 07:39:32;;;;;;;37.13;12.30;;;;;;;8.17;49.24;100708.42;1679836;84;21555;-73
2021/10/26 07:41:49;;;;;;;32.48;11.43;;;;;;;8.35;49.03;100705.20;1682170;85;20985;-76
2021/10/26 07:44:36;;;;;;;41.98;11.15;;;;;;;8.57;48.23;100707.67;1689291;85;21778;-70
2021/10/26 07:47:20;;;;;;;35.10;11.75;;;;;;;8.70;47.63;100700.79;1654696;85;20933;-74
2021/10/26 07:49:51;;;;;;;44.55;12.60;;;;;;;8.83;47.78;100702.42;1689350;84;20905;-80
2021/10/26 07:52:22;;;;;;;47.00;11.95;;;;;;;9.03;47.49;100704.30;1688545;84;20882;-70
2021/10/26 07:54:53;;;;;;;42.03;10.80;;;;;;;9.27;46.76;100695.72;1675925;84;21143;-82
2021/10/26 07:57:22;;;;;;;36.48;11.33;;;;;;;9.31;46.04;100692.42;1689162;85;21517;-73
2021/10/26 07:59:55;;;;;;;38.67;10.40;;;;;;;9.23;46.11;100694.67;1688644;84;20985;-71
2021/10/26 08:02:27;;;;;;;31.10;9.45;;;;;;;9.30;45.95;100690.78;1680885;85;21009;-76
2021/10/26 08:05:11;;;;;;;39.38;11.18;;;;;;;9.34;46.02;100697.34;1619958;85;20918;-75
2021/10/26 08:07:44;;;;;;;41.25;10.15;;;;;;;9.54;45.85;100695.34;1662430;85;20961;-69
2021/10/26 08:10:16;;;;;;;30.60;10.70;;;;;;;9.74;45.25;100685.39;1662491;86;21162;-70
2021/10/26 08:12:45;;;;;;;33.10;9.03;;;;;;;9.96;44.33;100679.47;1662572;84;20961;-70
2021/10/26 08:15:17;;;;;;;33.42;10.48;;;;;;;10.00;43.93;100677.80;1640245;86;20952;-70
2021/10/26 08:17:49;;;;;;;35.30;8.63;;;;;;;10.07;44.38;100678.30;1662404;84;21005;-70
2021/10/26 08:20:20;;;;;;;32.55;8.45;;;;;;;10.16;43.93;100679.34;1661039;86;20910;-72
2021/10/26 08:22:53;;;;;;;34.90;8.80;;;;;;;10.22;43.33;100672.19;1662419;86;21190;-69
2021/10/26 08:25:36;;;;;;;27.90;8.23;;;;;;;10.19;43.45;100676.02;1662526;86;21052;-69
2021/10/26 08:28:12;;;;;;;52.33;10.03;;;;;;;10.21;43.06;100666.98;1627496;86;21523;-69
2021/10/26 08:31:01;;;;;;;33.65;6.97;;;;;;;10.30;43.72;100664.45;1662351;84;21627;-69
2021/10/26 08:36:02;;;;;;;22.73;7.00;;;;;;;11.06;41.58;100663.13;1661564;85;21161;-67
2021/10/26 08:38:32;;;;;;;21.95;7.35;;;;;;;11.10;41.18;100650.44;1678465;84;21504;-69
2021/10/26 08:41:05;;;;;;;17.37;6.30;;;;;;;11.05;41.24;100664.23;1686305;83;21010;-72
2021/10/26 08:43:41;;;;;;;32.23;7.90;;;;;;;11.00;41.78;100653.30;1682621;84;21549;-67
2021/10/26 08:46:14;;;;;;;23.60;7.15;;;;;;;11.11;41.30;100649.88;1679496;85;20958;-69
2021/10/26 08:48:50;;;;;;;28.15;6.92;;;;;;;11.16;41.00;100651.20;1660084;85;20926;-69
2021/10/26 08:51:40;;;;;;;18.87;6.80;;;;;;;11.13;40.94;100657.28;1663510;85;20933;-69
2021/10/26 08:54:06;;;;;;;20.40;6.92;;;;;;;11.10;40.99;100660.05;1682739;85;20905;-71
2021/10/26 08:56:52;;;;;;;17.98;6.58;;;;;;;11.03;41.03;100660.14;1679202;85;21547;-68
2021/10/26 08:59:23;;;;;;;21.23;6.78;;;;;;;11.05;41.45;100650.49;1610713;87;21066;-72
2021/10/26 09:01:52;;;;;;;17.62;5.58;;;;;;;11.30;41.19;100649.94;1674259;85;21971;-71
2021/10/26 09:04:21;;;;;;;23.32;6.37;;;;;;;11.55;40.46;100653.74;1678971;84;21446;-73
2021/10/26 09:06:53;;;;;;;28.42;6.62;;;;;;;11.72;39.63;100644.41;1678541;85;20961;-70
2021/10/26 09:09:29;;;;;;;;;;;;;;;11.70;39.36;100646.63;1661653;85;20994;-76
2021/10/26 09:18:06;;;;;;;13.13;6.20;;;;;;;11.82;38.83;100633.84;1679182;85;20925;-69
2021/10/26 09:20:35;;;;;;;11.78;5.67;;;;;;;11.82;39.05;100634.66;1677025;85;20931;-66
2021/10/26 09:23:06;;;;;;;17.23;6.42;;;;;;;11.77;38.88;100634.73;1679283;85;21005;-67
2021/10/26 09:25:37;;;;;;;;;;;;;;;11.90;38.56;100631.80;1681784;85;21516;-65
2021/10/26 09:28:16;;;;;;;17.85;5.62;;;;;;;12.02;38.55;100624.47;1682732;85;21219;-69
2021/10/26 09:31:10;;;;;;;12.43;5.67;;;;;;;12.23;38.53;100623.81;1679365;84;20950;-70
2021/10/26 09:33:45;;;;;;;18.00;5.30;;;;;;;12.61;37.52;100625.09;1659548;85;21511;-72
2021/10/26 09:36:33;;;;;;;15.38;6.05;;;;;;;12.61;36.83;100620.16;1679127;85;21036;-70
2021/10/26 09:39:10;;;;;;;12.75;5.97;;;;;;;12.44;36.58;100614.66;1677011;85;21045;-67
2021/10/26 09:42:00;;;;;;;21.45;5.55;;;;;;;12.16;37.47;100611.55;1679376;85;21222;-67
2021/10/26 09:44:36;;;;;;;10.23;5.30;;;;;;;12.26;37.92;100612.76;1658179;85;37536;-73
2021/10/26 09:47:10;;;;;;;9.65;5.70;;;;;;;12.45;37.39;100613.53;1679212;85;21568;-83
2021/10/26 09:49:41;;;;;;;13.48;6.42;;;;;;;12.65;36.85;100614.30;1671945;85;21009;-77
2021/10/26 09:52:27;;;;;;;17.05;6.33;;;;;;;12.83;36.48;100603.17;1662411;85;20898;-77
2021/10/26 09:55:24;;;;;;;19.15;5.60;;;;;;;13.01;36.19;100602.82;1656371;85;22021;-78
2021/10/26 09:58:03;;;;;;;11.28;5.47;;;;;;;13.14;35.72;100594.30;1642312;87;21040;-84
2021/10/26 10:00:39;;;;;;;12.07;6.00;;;;;;;13.01;35.83;100594.55;1640113;87;20958;-88
2021/10/26 10:03:10;;;;;;;15.13;6.35;;;;;;;12.91;36.24;100589.23;1652020;87;20894;-75
2021/10/26 10:05:45;;;;;;;24.67;13.43;;;;;;;12.90;35.85;100587.05;1652020;86;20870;-75
2021/10/26 10:08:29;;;;;;;28.27;14.43;;;;;;;12.95;36.07;100585.31;1651769;86;21107;-70
2021/10/26 10:11:17;;;;;;;33.58;18.12;;;;;;;12.89;36.10;100579.90;1651943;86;20909;-75
2021/10/26 10:13:56;;;;;;;12.58;6.90;;;;;;;13.00;36.29;100570.05;1658301;85;20958;-73
2021/10/26 10:16:27;;;;;;;13.72;8.30;;;;;;;13.18;35.54;100567.77;1668878;85;20970;-71
2021/10/26 10:18:59;;;;;;;51.18;26.60;;;;;;;13.14;35.71;100555.70;1657968;86;21013;-68
2021/10/26 10:21:33;;;;;;;22.93;12.07;;;;;;;13.37;35.33;100563.48;1660053;85;21158;-67
2021/10/26 10:24:00;;;;;;;25.02;11.70;;;;;;;13.55;35.07;100557.81;1659682;86;20898;-69
2021/10/26 10:26:35;;;;;;;48.75;22.50;;;;;;;13.87;34.06;100558.14;1660756;85;20981;-70
2021/10/26 10:29:03;;;;;;;32.73;18.27;;;;;;;13.91;33.43;100562.47;1663517;85;21567;-72
2021/10/26 10:31:32;;;;;;;23.22;12.33;;;;;;;13.78;32.66;100564.75;1665665;85;20981;-68
2021/10/26 10:34:01;;;;;;;11.53;5.42;;;;;;;13.58;33.15;100546.72;1653065;85;21101;-69
2021/10/26 10:36:32;;;;;;;7.62;4.40;;;;;;;13.58;32.78;100548.10;1665927;85;21029;-70
2021/10/26 10:39:12;;;;;;;10.98;5.12;;;;;;;13.68;32.67;100537.39;1677811;85;20958;-73
2021/10/26 10:41:43;;;;;;;21.00;9.60;;;;;;;13.72;32.64;100540.59;1700187;84;21006;-71
2021/10/26 10:44:33;;;;;;;14.33;7.03;;;;;;;13.68;33.08;100538.77;1695421;83;21005;-69
2021/10/26 10:47:04;;;;;;;13.15;6.53;;;;;;;13.82;32.85;100536.21;1678649;85;21114;-74
2021/10/26 10:49:42;;;;;;;15.23;6.30;;;;;;;13.92;32.71;100521.87;1678451;84;21048;-71
2021/10/26 10:52:18;;;;;;;12.15;4.20;;;;;;;13.93;32.39;100524.89;1675155;84;20957;-75
2021/10/26 10:54:53;;;;;;;22.40;12.28;;;;;;;13.93;32.07;100522.13;1660423;85;20918;-75
2021/10/26 10:57:35;;;;;;;28.30;10.38;;;;;;;13.84;32.36;100516.58;1672604;85;21001;-70
2021/10/26 11:00:17;;;;;;;12.25;5.58;;;;;;;13.93;32.55;100515.23;1677186;85;21813;-72
2021/10/26 11:02:48;;;;;;;7.12;3.95;;;;;;;14.12;32.15;100511.70;1676431;84;20954;-78
2021/10/26 11:05:43;;;;;;;12.13;6.70;;;;;;;13.99;32.40;100502.93;1671797;85;21062;-79
2021/10/26 11:08:14;;;;;;;11.83;5.62;;;;;;;13.85;32.43;100498.89;1674709;85;21033;-67
2021/10/26 11:10:54;;;;;;;13.65;5.10;;;;;;;13.90;32.38;100502.88;1671326;85;20930;-78
2021/10/26 11:13:37;;;;;;;8.30;4.87;;;;;;;14.10;32.38;100489.93;1646626;85;21506;-74
2021/10/26 11:16:12;;;;;;;18.52;6.50;;;;;;;14.29;32.00;100500.75;1673983;85;20985;-71
2021/10/26 11:18:45;;;;;;;16.00;7.20;;;;;;;14.34;32.17;100489.57;1678438;85;21049;-77
2021/10/26 11:21:29;;;;;;;13.10;4.37;;;;;;;14.74;32.22;100482.66;1678686;85;21033;-70
2021/10/26 11:24:06;;;;;;;16.85;4.97;;;;;;;15.15;30.45;100477.52;1671600;85;20956;-71
2021/10/26 11:26:44;;;;;;;10.90;5.33;;;;;;;15.15;30.61;100479.47;1679020;85;21164;-70
2021/10/26 11:29:20;;;;;;;13.28;6.62;;;;;;;15.05;29.91;100477.83;1678757;85;20949;-70
2021/10/26 11:31:52;;;;;;;7.75;4.45;;;;;;;15.10;30.28;100469.38;1658270;85;21469;-70
2021/10/26 11:34:31;;;;;;;5.45;3.37;;;;;;;15.41;29.00;100473.96;1681020;84;20949;-70
2021/10/26 11:37:09;;;;;;;10.35;3.95;;;;;;;15.38;28.57;100470.46;1677022;85;20958;-69
2021/10/26 11:39:46;;;;;;;8.80;4.03;;;;;;;15.14;28.93;100475.08;1667717;85;21089;-69
2021/10/26 11:42:17;;;;;;;8.30;4.87;;;;;;;14.93;29.43;100475.48;1650427;86;20867;-75
2021/10/26 11:44:44;;;;;;;9.28;3.85;;;;;;;14.96;29.76;100465.16;1654039;86;20950;-74
2021/10/26 11:47:11;;;;;;;9.78;4.53;;;;;;;15.05;29.75;100457.09;1653345;85;21041;-74
2021/10/26 11:49:37;;;;;;;9.70;5.15;;;;;;;15.13;29.51;100455.47;1649352;85;21049;-70
2021/10/26 11:52:06;;;;;;;8.60;5.42;;;;;;;15.07;29.34;100447.90;1645222;86;21474;-68